Terminal Aerodrome Forecast
Issued by NWS

Home | Current Version | Previous Version | Text Only | Print | Product List | Glossary On
Versions: 1 2 3 4 5 6 7 8 9 10 11 12 13 14 15 16 17 18 19 20 21 22 23 24 25
000
FTUS43 KDLH 231600 AAC
TAFBRD
TAF AMD
KBRD 231657Z 2317/2412 22005KT 2SM BR FEW004 OVC080
     FM232000 27007KT 4SM -DZ BR SCT004 OVC015
     FM240200 32010G18KT 4SM -FZDZ OVC007
     FM240800 32015G23KT 2SM -SN BLSN OVC007=

USA.gov is the U.S. government's official web portal to all federal, state and local government web resources and services.